Prescott, AZ

12:36 AM MST on September 17, 2014 (GMT -0700)
Love | Change Station
CLOSE
Current Station
Airport
Location: Prescott,
Elevation: 5043 ft
Nearby Weather Stations
Active Advisory: Flash Flood Watch

Elev 5043 ft 34.65 °N, 112.42 °W | Updated 43 minutes ago

Overcast
Overcast
66 °F
Feels Like 66 °F
N
5
Wind Variable Wind from WSW

Today
High -- | Low -- °F
--% Chance of Precip.
Yesterday
High -- | Low -- °F
Precip. -- in
6:14 AM 6:33 PM
Last Quarter, 38% visible
Pressure 29.88 in
Visibility 10.0 miles
Clouds Mostly Cloudy 11000 ft
Dew Point 57 °F
Humidity 73%
Rainfall 0.00 in
Snow Depth Not available.
UV 0 out of 12
Pollen 6.30 out of 12
Air Quality Not available.
Flu Activity Not available.
METAR KPRC 170653Z AUTO 25004KT 10SM BKN110 19/14 A3012 RMK AO2 SLP116 T01890139 402780139

More Conditions Fewer Conditions

Pressure 29.88 in
Visibility 10.0 miles
Clouds Mostly Cloudy 11000 ft
Dew Point 57 °F
Humidity 73%
Rainfall 0.00 in
Snow Depth Not available.
UV 0 out of 12
Pollen 6.30 out of 12
Air Quality Not available.
Flu Activity Not available.
METAR KPRC 170653Z AUTO 25004KT 10SM BKN110 19/14 A3012 RMK AO2 SLP116 T01890139 402780139

More Conditions Fewer Conditions

10-Day Weather Forecast

Almanac

Astronomy

Sep. 17, 2014 Rise Set
Actual Time 6:14 AM MST 6:33 PM MST
Civil Twilight 5:49 AM MST 6:58 PM MST
Nautical Twilight 5:19 AM MST 7:28 PM MST
Astronomical Twilight 4:49 AM MST 7:58 PM MST
Moon 12:28 AM MST 2:36 PM MST
Length of Visible Light 13h 09m
Length of Day
12h 19m
Tomorrow will be 2m 9s shorter.
Last Quarter, 38% of the Moon is Illuminated
Today
Last Quarter
Sep 24
New
Oct 1
First Quarter
Oct 8
Full
Oct 15
Last Quarter

Today's Extremes

State Highs State Lows

Community

WunderPhotos

Upload Photos

1,753,976 photos uploaded!

Nearby

Snow Depth

Station Depth Elevation
Workman Creek 1 in 6900 ft
Maverick Fork 0 in 9200 ft
White Horse Lake 0 in 7180 ft
Snowslide Canyon 1 in 9730 ft
Promontory 0 in 7930 ft

Earthquake Activity

City Distance Mag. Time & Date
No recent earthquake activity has been reported nearby.
Minimum magnitude displayed is 2.5.

Coastal Water Temperatures

Place Temperature
No Stations Reporting

Nearby Weather Stations